Weather History for KRZL - February, 2014

Change the Weather History Date:

Tuesday, February 25, 2014

  Actual Average (KVPZ) Record (KVPZ)
Temperature  
Mean Temperature 17 °F 31 °F  
Max Temperature 24 °F 39 °F 71 °F (2000)
Min Temperature 8 °F 23 °F 0 °F (2003)
Degree Days  
Heating Degree Days 48 34  
Month to date heating degree days 948  
Since 1 July heating degree days 4633  
Cooling Degree Days 0 0  
Month to date cooling degree days 0  
Year to date cooling degree days 0  
Moisture  
Dew Point 12 °F    
Average Humidity 75    
Maximum Humidity 93    
Minimum Humidity 58    
Precipitation  
Precipitation 0.00 in 0.06 in 0.09 in (2008)
Month to date precipitation 1.26  
Year to date precipitation 3.01  
Sea Level Pressure  
Sea Level Pressure 30.19 in    
Wind  
Wind Speed 10 mph (West)    
Max Wind Speed 20 mph    
Max Gust Speed 29 mph    
Visibility 10 miles    
Events Snow    
T = Trace of Precipitation, MM = Missing Value Source: NWS Daily Summary

Daily Weather History Graph

Daily Weather History Graph

Search for Another Location

Airport or City:

Trip Planner

Search our weather history database for the weather conditions in past years. The results will help you decide how hot, cold, wet, or windy it might be!

Date:

Astronomy

Feb. 25, 2014 Rise Set
Actual Time 6:28 AM CST 5:35 PM CST
Civil Twilight 6:01 AM CST 6:02 PM CST
Nautical Twilight 5:29 AM CST 6:34 PM CST
Astronomical Twilight 4:57 AM CST 7:06 PM CST
Moon 3:24 AM CST (2/25) 1:39 PM CST (2/25)
Length of Visible Light 12h 01m
Length of Day
11h 06m
Waning Crescent, 18% of the Moon is Illuminated
Feb 25
Waning Crescent
Mar 1
New
Mar 8
First Quarter
Mar 16
Full
Mar 23
Last Quarter

Hourly Weather History & Observations

Time (CST) Temp. Windchill Dew Point Humidity Pressure Visibility Wind Dir Wind Speed Gust Speed Precip Events Conditions
12:15 AM 21.2 °F 11.7 °F 12.2 °F 68% 30.21 in 10.0 mi WNW 8.1 mph - N/A   Overcast
12:35 AM 21.2 °F 12.6 °F 12.2 °F 68% 30.21 in 10.0 mi WNW 6.9 mph - N/A   Overcast
12:55 AM 21.2 °F 10.1 °F 12.2 °F 68% 30.22 in 10.0 mi NW 10.4 mph - N/A   Overcast
1:15 AM 21.2 °F 9.5 °F 14.0 °F 74% 30.23 in 4.0 mi NW 11.5 mph - N/A Snow Light Snow
1:35 AM 19.4 °F 9.5 °F 15.8 °F 86% 30.23 in 3.0 mi West 8.1 mph - N/A Snow Light Snow
1:55 AM 19.4 °F 9.5 °F 17.6 °F 93% 30.22 in 5.0 mi West 8.1 mph - N/A Snow Light Snow
2:15 AM 19.4 °F 10.4 °F 15.8 °F 86% 30.21 in 10.0 mi West 6.9 mph - N/A   Overcast
2:35 AM 19.4 °F 9.5 °F 15.8 °F 86% 30.22 in 10.0 mi West 8.1 mph - N/A   Overcast
2:55 AM 19.4 °F 9.5 °F 14.0 °F 80% 30.21 in 10.0 mi WNW 8.1 mph - N/A   Overcast
3:15 AM 19.4 °F 10.4 °F 14.0 °F 80% 30.21 in 5.0 mi WNW 6.9 mph - N/A Snow Light Snow
3:35 AM 19.4 °F 10.4 °F 15.8 °F 86% 30.20 in 7.0 mi West 6.9 mph - N/A Snow Light Snow
3:55 AM 19.4 °F 10.4 °F 15.8 °F 86% 30.19 in 7.0 mi West 6.9 mph - N/A Snow Light Snow
4:15 AM 19.4 °F 10.4 °F 15.8 °F 86% 30.19 in 10.0 mi West 6.9 mph - N/A   Overcast
4:35 AM 19.4 °F 10.4 °F 15.8 °F 86% 30.19 in 10.0 mi WNW 6.9 mph - N/A   Overcast
4:55 AM 19.4 °F 11.5 °F 15.8 °F 86% 30.20 in 10.0 mi WNW 5.8 mph - N/A   Overcast
5:15 AM 19.4 °F 10.4 °F 14.0 °F 80% 30.21 in 10.0 mi West 6.9 mph - N/A   Overcast
5:35 AM 17.6 °F 8.2 °F 14.0 °F 86% 30.21 in 10.0 mi West 6.9 mph - N/A   Mostly Cloudy
5:55 AM 17.6 °F 8.2 °F 14.0 °F 86% 30.22 in 10.0 mi WNW 6.9 mph - N/A   Scattered Clouds
6:15 AM 17.6 °F 9.3 °F 14.0 °F 86% 30.22 in 10.0 mi West 5.8 mph - N/A   Scattered Clouds
6:35 AM 17.6 °F 9.3 °F 14.0 °F 86% 30.22 in 1.0 mi West 5.8 mph - N/A   Overcast
6:55 AM 17.6 °F 8.2 °F 14.0 °F 86% 30.22 in 10.0 mi West 6.9 mph - N/A   Overcast
7:15 AM 17.6 °F 10.7 °F 12.2 °F 79% 30.22 in 10.0 mi West 4.6 mph - N/A   Mostly Cloudy
7:35 AM 17.6 °F 8.2 °F 14.0 °F 86% 30.22 in 10.0 mi West 6.9 mph - N/A   Mostly Cloudy
7:55 AM 17.6 °F 7.3 °F 14.0 °F 86% 30.23 in 10.0 mi WNW 8.1 mph - N/A   Overcast
8:15 AM 19.4 °F 9.5 °F 14.0 °F 80% 30.24 in 10.0 mi West 8.1 mph - N/A   Overcast
8:35 AM 19.4 °F 9.5 °F 14.0 °F 80% 30.23 in 10.0 mi West 8.1 mph - N/A   Scattered Clouds
8:55 AM 19.4 °F 9.5 °F 14.0 °F 80% 30.22 in 10.0 mi WNW 8.1 mph - N/A   Clear
9:15 AM 19.4 °F 9.5 °F 14.0 °F 80% 30.22 in 10.0 mi West 8.1 mph - N/A   Clear
9:35 AM 21.2 °F 11.7 °F 14.0 °F 74% 30.22 in 10.0 mi West 8.1 mph - N/A   Clear
9:55 AM 21.2 °F 10.1 °F 14.0 °F 74% 30.23 in 10.0 mi West 10.4 mph - N/A   Clear
10:15 AM 21.2 °F 8.9 °F 14.0 °F 74% 30.23 in 10.0 mi West 12.7 mph - N/A   Clear
10:35 AM 21.2 °F 10.1 °F 14.0 °F 74% 30.22 in 10.0 mi West 10.4 mph - N/A   Clear
10:55 AM 23.0 °F 13.9 °F 14.0 °F 68% 30.21 in 10.0 mi West 8.1 mph - N/A   Clear
11:15 AM 23.0 °F 13.1 °F 14.0 °F 68% 30.21 in 10.0 mi West 9.2 mph - N/A   Clear
11:35 AM 23.0 °F 11.7 °F 14.0 °F 68% 30.21 in 10.0 mi West 11.5 mph - N/A   Clear
11:55 AM 23.0 °F 11.7 °F 15.8 °F 74% 30.21 in 10.0 mi WSW 11.5 mph - N/A   Clear
12:15 PM 23.0 °F 13.1 °F 15.8 °F 74% 30.20 in 10.0 mi West 9.2 mph - N/A   Clear
12:35 PM 23.0 °F 11.7 °F 17.6 °F 80% 30.19 in 10.0 mi WNW 11.5 mph 16.1 mph N/A   Scattered Clouds
12:55 PM 23.0 °F 11.7 °F 15.8 °F 74% 30.19 in 10.0 mi West 11.5 mph - N/A   Scattered Clouds
1:15 PM 24.8 °F 12.9 °F 15.8 °F 69% 30.18 in 10.0 mi West 13.8 mph - N/A   Clear
1:35 PM 24.8 °F 14.0 °F 17.6 °F 74% 30.18 in 10.0 mi West 11.5 mph - N/A   Scattered Clouds
1:55 PM 24.8 °F 13.4 °F 17.6 °F 74% 30.18 in 10.0 mi West 12.7 mph 18.4 mph N/A   Mostly Cloudy
2:15 PM 24.8 °F 14.0 °F 17.6 °F 74% 30.17 in 10.0 mi West 11.5 mph - N/A   Overcast
2:35 PM 24.8 °F 12.9 °F 17.6 °F 74% 30.17 in 10.0 mi West 13.8 mph 17.3 mph N/A   Overcast
2:55 PM 24.8 °F 12.9 °F 15.8 °F 69% 30.17 in 10.0 mi West 13.8 mph - N/A   Mostly Cloudy
3:15 PM 23.0 °F 10.1 °F 17.6 °F 80% 30.17 in 10.0 mi WSW 15.0 mph - N/A   Mostly Cloudy
3:35 PM 23.0 °F 10.6 °F 17.6 °F 80% 30.17 in 10.0 mi West 13.8 mph 21.9 mph N/A   Mostly Cloudy
3:55 PM 23.0 °F 10.1 °F 17.6 °F 80% 30.15 in 10.0 mi West 15.0 mph - N/A   Mostly Cloudy
4:15 PM 23.0 °F 10.1 °F 15.8 °F 74% 30.15 in 10.0 mi West 15.0 mph 19.6 mph N/A   Mostly Cloudy
4:35 PM 21.2 °F 7.8 °F 14.0 °F 74% 30.14 in 10.0 mi West 15.0 mph 23.0 mph N/A   Scattered Clouds
4:55 PM 21.2 °F 7.8 °F 14.0 °F 74% 30.14 in 10.0 mi West 15.0 mph 20.7 mph N/A   Clear
5:15 PM 21.2 °F 6.8 °F 12.2 °F 68% 30.14 in 10.0 mi West 17.3 mph 23.0 mph N/A   Clear
5:35 PM 21.2 °F 7.8 °F 10.4 °F 63% 30.14 in 10.0 mi West 15.0 mph 21.9 mph N/A   Clear
5:55 PM 19.4 °F 6.6 °F 12.2 °F 74% 30.14 in 10.0 mi West 12.7 mph 19.6 mph N/A   Clear
6:15 PM 19.4 °F 4.5 °F 10.4 °F 68% 30.15 in 10.0 mi West 17.3 mph 21.9 mph N/A   Clear
6:35 PM 19.4 °F 3.6 °F 8.6 °F 63% 30.15 in 10.0 mi West 19.6 mph 24.2 mph N/A   Clear
6:55 PM 17.6 °F 2.2 °F 6.8 °F 63% 30.16 in 10.0 mi West 17.3 mph 23.0 mph N/A   Clear
7:15 PM 17.6 °F 2.2 °F 5.0 °F 58% 30.16 in 10.0 mi West 17.3 mph 25.3 mph N/A   Clear
7:35 PM 15.8 °F -0.6 °F 5.0 °F 62% 30.16 in 10.0 mi West 18.4 mph 24.2 mph N/A   Clear
7:55 PM 15.8 °F -0.2 °F 5.0 °F 62% 30.16 in 10.0 mi West 17.3 mph 23.0 mph N/A   Clear
8:15 PM 14.0 °F -0.2 °F 5.0 °F 67% 30.16 in 10.0 mi West 12.7 mph 21.9 mph N/A   Clear
8:35 PM 14.0 °F -2.5 °F 3.2 °F 62% 30.16 in 10.0 mi West 17.3 mph 25.3 mph N/A   Clear
8:55 PM 14.0 °F -0.8 °F 3.2 °F 62% 30.17 in 10.0 mi WNW 13.8 mph 27.6 mph N/A   Clear
9:15 PM 12.2 °F -4.3 °F 3.2 °F 67% 30.18 in 10.0 mi WNW 16.1 mph 23.0 mph N/A   Clear
9:35 PM 12.2 °F -4.3 °F 1.4 °F 62% 30.18 in 10.0 mi WNW 16.1 mph 25.3 mph N/A   Clear
9:55 PM 12.2 °F -4.8 °F 1.4 °F 62% 30.18 in 10.0 mi West 17.3 mph 21.9 mph N/A   Clear
10:15 PM 10.4 °F -8.2 °F 1.4 °F 67% 30.19 in 10.0 mi West 19.6 mph 25.3 mph N/A   Clear
10:35 PM 10.4 °F -7.7 °F 1.4 °F 67% 30.19 in 10.0 mi West 18.4 mph 27.6 mph N/A   Clear
10:55 PM 10.4 °F -7.2 °F 1.4 °F 67% 30.19 in 10.0 mi WNW 17.3 mph 28.8 mph N/A   Clear
11:15 PM 10.4 °F -6.6 °F 1.4 °F 67% 30.19 in 10.0 mi West 16.1 mph 24.2 mph N/A   Clear
11:35 PM 10.4 °F -6.6 °F 1.4 °F 67% 30.19 in 10.0 mi WNW 16.1 mph 24.2 mph N/A   Clear
11:55 PM 8.6 °F -7.7 °F 1.4 °F 73% 30.19 in 10.0 mi WNW 13.8 mph 21.9 mph N/A   Clear